Bookmark and Share
Track history (hours):
 

Eships Dana

Last reported at 2014-Apr-20 00:32 UTC. Time now 2014-Apr-20 00:42 UTC.
Position N 51°57' E 004°06'.

Length 116 m; draft 5.8 m.

Type: Ship (hazmat cat A). MMSI: 236566000.

NotesDate/timePositionNaut miles runAvg speedWind from/ knotsBaromVisibWave heightAir tempDewpointWater temp
2014-Apr-20 00:32N 51°57' E 004°06'  
2014-Apr-17 18:33N 51°57' E 004°05'9 8.6
2014-Apr-17 17:33N 52°00' E 003°52'1010.4
2014-Apr-17 16:33N 51°57' E 003°36'1514.4
2014-Apr-17 15:33N 51°53' E 003°13'1515.2
2014-Apr-17 14:33N 51°49' E 002°50'1515.3
2014-Apr-17 13:33N 51°40' E 002°30'1615.5
2014-Apr-17 12:33N 51°27' E 002°15'1515.2
2014-Apr-17 11:34N 51°14' E 002°04'1414.1
2014-Apr-17 10:33N 51°06' E 001°46'1312.9
2014-Apr-17 09:33N 50°58' E 001°30'1211.9
2014-Apr-17 08:33N 50°46' E 001°24'1212.3
2014-Apr-17 07:33N 50°37' E 001°12'1312.9
2014-Apr-17 06:33N 50°29' E 000°56'1413.0
2014-Apr-17 05:28N 50°24' E 000°35'1212.9
2014-Apr-17 04:33N 50°20' E 000°18'1212.3
2014-Apr-17 03:33N 50°16' W 000°01'1312.5
2014-Apr-17 02:33N 50°05' W 000°09'1413.9
2014-Apr-17 01:32N 49°51' W 000°11'1414.7
2014-Apr-17 00:34N 49°37' W 000°06'1212.4
2014-Apr-16 23:33N 49°28' E 000°08'3 2.8
2014-Apr-16 22:32N 49°29' E 000°12'0 0.0
2014-Apr-16 21:32N 49°29' E 000°12'0 0.0
2014-Apr-16 20:32N 49°29' E 000°12'0 0.0
2014-Apr-16 19:32N 49°29' E 000°12'0 0.0
2014-Apr-16 18:32N 49°29' E 000°12'0 0.0
2014-Apr-16 17:32N 49°29' E 000°12'0 0.0
2014-Apr-16 16:32N 49°29' E 000°12'0 0.0
2014-Apr-16 15:32N 49°29' E 000°12'0 0.0
2014-Apr-16 14:32N 49°29' E 000°12'0 0.0
2014-Apr-16 13:32N 49°29' E 000°12'0 0.0
2014-Apr-16 12:32N 49°29' E 000°12'0 0.0
2014-Apr-16 11:32N 49°29' E 000°12'0 0.0
2014-Apr-16 10:32N 49°29' E 000°12'0 0.0
2014-Apr-16 09:32N 49°29' E 000°12'0 0.0
2014-Apr-16 08:32N 49°29' E 000°12'0 0.0
2014-Apr-16 07:32N 49°29' E 000°12'0 0.0
2014-Apr-16 06:32N 49°29' E 000°12'0 0.0
2014-Apr-16 05:32N 49°29' E 000°12'0 0.0
2014-Apr-16 04:29N 49°29' E 000°12'0 0.0
2014-Apr-16 03:32N 49°29' E 000°12'0 0.0
2014-Apr-16 02:32N 49°29' E 000°12'0 0.0
2014-Apr-16 01:26N 49°29' E 000°12'0 0.0
2014-Apr-16 00:32N 49°29' E 000°12'0 0.0
2014-Apr-15 23:33N 49°29' E 000°12'0 0.0
2014-Apr-15 22:33N 49°29' E 000°12'0 0.0
2014-Apr-15 21:33N 49°29' E 000°12'0 0.0
2014-Apr-15 20:33N 49°29' E 000°12'0 0.0
2014-Apr-15 19:33N 49°29' E 000°12'1 1.2
2014-Apr-15 18:33N 49°29' E 000°10'6 5.8
2014-Apr-15 17:33N 49°30' E 000°02'8 8.3
2014-Apr-15 16:33N 49°34' W 000°10'0 0.4
2014-Apr-15 15:28N 49°34' W 000°09'0 0.0
2014-Apr-15 14:22N 49°34' W 000°09'0 0.0
2014-Apr-15 10:34N 49°34' W 000°09'9 8.9
2014-Apr-15 09:33N 49°34' W 000°23'4615.3
2014-Apr-15 06:34N 49°54' W 001°27'  
2014-Apr-10 23:29N 47°03' W 002°28'  

Dump ship's entire track history

sailing weather and tide predictions

Eships Dana — ZDJT6 — position and weather